sensor_id;sensor_type;location;lat;lon;timestamp;pressure;altitude;pressure_sealevel;temperature;humidity
42289;BME280;30230;47.520;19.016;2023-04-20T00:01:13;98961.97;;;7.92;99.06
42289;BME280;30230;47.520;19.016;2023-04-20T00:03:13;98969.00;;;7.93;99.31
42289;BME280;30230;47.520;19.016;2023-04-20T00:05:13;98961.56;;;7.95;98.89
42289;BME280;30230;47.520;19.016;2023-04-20T00:07:14;98962.81;;;7.93;99.81
42289;BME280;30230;47.520;19.016;2023-04-20T00:09:15;98970.41;;;7.89;99.34
42289;BME280;30230;47.520;19.016;2023-04-20T00:11:16;98965.63;;;7.84;99.83
42289;BME280;30230;47.520;19.016;2023-04-20T00:13:16;98963.97;;;7.83;99.46
42289;BME280;30230;47.520;19.016;2023-04-20T00:15:17;98960.13;;;7.71;100.00
42289;BME280;30230;47.520;19.016;2023-04-20T00:17:17;98969.91;;;7.79;100.00
42289;BME280;30230;47.520;19.016;2023-04-20T00:19:18;98959.09;;;7.72;100.00
42289;BME280;30230;47.520;19.016;2023-04-20T00:21:20;98969.28;;;7.77;100.00
42289;BME280;30230;47.520;19.016;2023-04-20T00:23:23;98962.25;;;7.76;100.00
42289;BME280;30230;47.520;19.016;2023-04-20T00:25:23;98959.31;;;7.71;100.00
42289;BME280;30230;47.520;19.016;2023-04-20T00:27:23;98960.19;;;7.78;100.00
42289;BME280;30230;47.520;19.016;2023-04-20T00:29:24;98965.00;;;7.82;100.00
42289;BME280;30230;47.520;19.016;2023-04-20T00:31:25;98956.28;;;7.80;100.00
42289;BME280;30230;47.520;19.016;2023-04-20T00:33:25;98957.13;;;7.81;100.00
42289;BME280;30230;47.520;19.016;2023-04-20T00:35:25;98953.78;;;7.79;100.00
42289;BME280;30230;47.520;19.016;2023-04-20T00:37:26;98949.47;;;7.84;100.00
42289;BME280;30230;47.520;19.016;2023-04-20T00:39:27;98960.44;;;7.83;100.00
42289;BME280;30230;47.520;19.016;2023-04-20T00:41:28;98952.00;;;7.86;100.00
42289;BME280;30230;47.520;19.016;2023-04-20T00:43:28;98964.47;;;7.94;100.00
42289;BME280;30230;47.520;19.016;2023-04-20T00:45:28;98947.00;;;7.83;100.00
42289;BME280;30230;47.520;19.016;2023-04-20T00:47:29;98952.00;;;7.86;100.00
42289;BME280;30230;47.520;19.016;2023-04-20T00:49:29;98960.44;;;7.83;100.00
42289;BME280;30230;47.520;19.016;2023-04-20T00:51:31;98950.06;;;7.80;100.00
42289;BME280;30230;47.520;19.016;2023-04-20T00:53:31;98944.00;;;7.71;100.00
42289;BME280;30230;47.520;19.016;2023-04-20T00:55:32;98945.88;;;7.71;100.00
42289;BME280;30230;47.520;19.016;2023-04-20T00:57:33;98942.72;;;7.67;100.00
42289;BME280;30230;47.520;19.016;2023-04-20T00:59:34;98948.94;;;7.68;100.00
42289;BME280;30230;47.520;19.016;2023-04-20T01:01:35;98951.16;;;7.64;100.00
42289;BME280;30230;47.520;19.016;2023-04-20T01:03:35;98949.00;;;7.53;100.00
42289;BME280;30230;47.520;19.016;2023-04-20T01:05:36;98953.47;;;7.46;100.00
42289;BME280;30230;47.520;19.016;2023-04-20T01:07:36;98944.59;;;7.45;100.00
42289;BME280;30230;47.520;19.016;2023-04-20T01:09:37;98946.63;;;7.43;100.00
42289;BME280;30230;47.520;19.016;2023-04-20T01:11:42;98949.56;;;7.48;100.00
42289;BME280;30230;47.520;19.016;2023-04-20T01:13:42;98948.38;;;7.51;100.00
42289;BME280;30230;47.520;19.016;2023-04-20T01:15:43;98946.88;;;7.48;100.00
42289;BME280;30230;47.520;19.016;2023-04-20T01:17:43;98940.47;;;7.49;100.00
42289;BME280;30230;47.520;19.016;2023-04-20T01:19:45;98937.16;;;7.47;100.00
42289;BME280;30230;47.520;19.016;2023-04-20T01:21:45;98943.16;;;7.49;100.00
42289;BME280;30230;47.520;19.016;2023-04-20T01:23:46;98937.41;;;7.52;100.00
42289;BME280;30230;47.520;19.016;2023-04-20T01:25:47;98945.47;;;7.52;100.00
42289;BME280;30230;47.520;19.016;2023-04-20T01:27:48;98939.06;;;7.53;100.00
42289;BME280;30230;47.520;19.016;2023-04-20T01:29:48;98935.34;;;7.54;100.00
42289;BME280;30230;47.520;19.016;2023-04-20T01:31:49;98938.03;;;7.54;100.00
42289;BME280;30230;47.520;19.016;2023-04-20T01:33:50;98931.41;;;7.50;100.00
42289;BME280;30230;47.520;19.016;2023-04-20T01:35:51;98927.03;;;7.49;100.00
42289;BME280;30230;47.520;19.016;2023-04-20T01:37:52;98942.00;;;7.58;100.00
42289;BME280;30230;47.520;19.016;2023-04-20T01:39:53;98933.94;;;7.58;100.00
42289;BME280;30230;47.520;19.016;2023-04-20T01:41:53;98944.78;;;7.65;100.00
42289;BME280;30230;47.520;19.016;2023-04-20T01:43:53;98954.31;;;7.68;100.00
42289;BME280;30230;47.520;19.016;2023-04-20T01:45:54;98946.03;;;7.69;100.00
42289;BME280;30230;47.520;19.016;2023-04-20T01:47:54;98940.88;;;7.68;100.00
42289;BME280;30230;47.520;19.016;2023-04-20T01:49:55;98940.75;;;7.76;100.00
42289;BME280;30230;47.520;19.016;2023-04-20T01:51:55;98944.50;;;7.81;100.00
42289;BME280;30230;47.520;19.016;2023-04-20T01:53:56;98937.03;;;7.77;100.00
42289;BME280;30230;47.520;19.016;2023-04-20T01:55:58;98932.69;;;7.76;100.00
42289;BME280;30230;47.520;19.016;2023-04-20T01:57:58;98938.69;;;7.78;100.00
42289;BME280;30230;47.520;19.016;2023-04-20T01:59:59;98939.72;;;7.77;100.00
42289;BME280;30230;47.520;19.016;2023-04-20T02:01:59;98938.06;;;7.76;100.00
42289;BME280;30230;47.520;19.016;2023-04-20T02:03:59;98940.75;;;7.76;100.00
42289;BME280;30230;47.520;19.016;2023-04-20T02:06:00;98936.63;;;7.80;100.00
42289;BME280;30230;47.520;19.016;2023-04-20T02:08:00;98942.25;;;7.85;100.00
42289;BME280;30230;47.520;19.016;2023-04-20T02:10:02;98945.66;;;7.72;100.00
42289;BME280;30230;47.520;19.016;2023-04-20T02:12:02;98939.16;;;7.60;100.00
42289;BME280;30230;47.520;19.016;2023-04-20T02:14:03;98941.63;;;7.62;100.00
42289;BME280;30230;47.520;19.016;2023-04-20T02:16:03;98951.63;;;7.68;100.00
42289;BME280;30230;47.520;19.016;2023-04-20T02:18:04;98943.94;;;7.65;100.00
42289;BME280;30230;47.520;19.016;2023-04-20T02:20:05;98949.69;;;7.62;100.00
42289;BME280;30230;47.520;19.016;2023-04-20T02:22:06;98946.97;;;7.55;100.00
42289;BME280;30230;47.520;19.016;2023-04-20T02:24:06;98945.69;;;7.51;100.00
42289;BME280;30230;47.520;19.016;2023-04-20T02:26:07;98944.66;;;7.52;100.00
42289;BME280;30230;47.520;19.016;2023-04-20T02:28:07;98947.13;;;7.53;100.00
42289;BME280;30230;47.520;19.016;2023-04-20T02:30:08;98950.53;;;7.62;100.00
42289;BME280;30230;47.520;19.016;2023-04-20T02:32:09;98940.56;;;7.56;100.00
42289;BME280;30230;47.520;19.016;2023-04-20T02:34:10;98946.34;;;7.60;100.00
42289;BME280;30230;47.520;19.016;2023-04-20T02:36:10;98949.66;;;7.55;100.00
42289;BME280;30230;47.520;19.016;2023-04-20T02:38:11;98944.03;;;7.50;100.00
42289;BME280;30230;47.520;19.016;2023-04-20T02:40:12;98944.44;;;7.53;100.00
42289;BME280;30230;47.520;19.016;2023-04-20T02:42:13;98952.97;;;7.57;100.00
42289;BME280;30230;47.520;19.016;2023-04-20T02:44:13;98945.97;;;7.63;100.00
42289;BME280;30230;47.520;19.016;2023-04-20T02:46:13;98950.53;;;7.62;100.00
42289;BME280;30230;47.520;19.016;2023-04-20T02:48:14;98943.94;;;7.65;100.00
42289;BME280;30230;47.520;19.016;2023-04-20T02:50:14;98941.91;;;7.67;100.00
42289;BME280;30230;47.520;19.016;2023-04-20T02:52:15;98951.66;;;7.74;100.00
42289;BME280;30230;47.520;19.016;2023-04-20T02:54:15;98953.16;;;7.77;100.00
42289;BME280;30230;47.520;19.016;2023-04-20T02:56:16;98953.16;;;7.77;100.00
42289;BME280;30230;47.520;19.016;2023-04-20T02:58:16;98957.13;;;7.81;100.00
42289;BME280;30230;47.520;19.016;2023-04-20T03:00:17;98956.28;;;7.80;100.00
42289;BME280;30230;47.520;19.016;2023-04-20T03:02:18;98964.41;;;7.87;100.00
42289;BME280;30230;47.520;19.016;2023-04-20T03:04:18;98964.16;;;7.82;100.00
42289;BME280;30230;47.520;19.016;2023-04-20T03:06:20;98965.63;;;7.84;100.00
42289;BME280;30230;47.520;19.016;2023-04-20T03:08:21;98960.25;;;7.84;100.00
42289;BME280;30230;47.520;19.016;2023-04-20T03:10:22;98965.25;;;7.88;100.00
42289;BME280;30230;47.520;19.016;2023-04-20T03:12:22;98970.03;;;7.92;100.00
42289;BME280;30230;47.520;19.016;2023-04-20T03:14:23;98957.44;;;7.93;100.00
42289;BME280;30230;47.520;19.016;2023-04-20T03:16:23;98958.25;;;7.93;100.00
42289;BME280;30230;47.520;19.016;2023-04-20T03:18:23;98961.78;;;7.94;100.00
42289;BME280;30230;47.520;19.016;2023-04-20T03:20:24;98961.16;;;7.92;100.00
42289;BME280;30230;47.520;19.016;2023-04-20T03:22:24;98957.56;;;7.84;100.00
42289;BME280;30230;47.520;19.016;2023-04-20T03:24:25;98961.06;;;7.85;100.00
42289;BME280;30230;47.520;19.016;2023-04-20T03:26:26;98957.56;;;7.84;100.00
42289;BME280;30230;47.520;19.016;2023-04-20T03:28:26;98958.78;;;7.82;100.00
42289;BME280;30230;47.520;19.016;2023-04-20T03:30:27;98962.50;;;7.81;100.00
42289;BME280;30230;47.520;19.016;2023-04-20T03:32:28;98958.63;;;7.90;100.00
42289;BME280;30230;47.520;19.016;2023-04-20T03:34:28;98956.97;;;7.89;100.00
42289;BME280;30230;47.520;19.016;2023-04-20T03:36:28;98967.97;;;7.94;100.00
42289;BME280;30230;47.520;19.016;2023-04-20T03:38:29;98966.91;;;7.89;100.00
42289;BME280;30230;47.520;19.016;2023-04-20T03:40:29;98964.16;;;7.82;100.00
42289;BME280;30230;47.520;19.016;2023-04-20T03:42:30;98964.94;;;7.76;100.00
42289;BME280;30230;47.520;19.016;2023-04-20T03:44:30;98972.34;;;7.74;100.00
42289;BME280;30230;47.520;19.016;2023-04-20T03:46:31;98972.56;;;7.72;100.00
42289;BME280;30230;47.520;19.016;2023-04-20T03:48:32;98970.22;;;7.69;100.00
42289;BME280;30230;47.520;19.016;2023-04-20T03:50:33;98969.22;;;7.70;100.00
42289;BME280;30230;47.520;19.016;2023-04-20T03:52:33;98976.06;;;7.73;100.00
42289;BME280;30230;47.520;19.016;2023-04-20T03:54:34;98974.66;;;7.77;100.00
42289;BME280;30230;47.520;19.016;2023-04-20T03:56:34;98981.50;;;7.79;100.00
42289;BME280;30230;47.520;19.016;2023-04-20T03:58:34;98973.88;;;7.83;100.00
42289;BME280;30230;47.520;19.016;2023-04-20T04:00:35;98983.25;;;7.87;100.00
42289;BME280;30230;47.520;19.016;2023-04-20T04:02:35;98982.66;;;7.92;100.00
42289;BME280;30230;47.520;19.016;2023-04-20T04:04:35;98977.72;;;7.95;100.00
42289;BME280;30230;47.520;19.016;2023-04-20T04:06:36;98973.66;;;8.06;100.00
42289;BME280;30230;47.520;19.016;2023-04-20T04:08:36;98971.41;;;8.09;100.00
42289;BME280;30230;47.520;19.016;2023-04-20T04:10:37;98971.66;;;8.15;100.00
42289;BME280;30230;47.520;19.016;2023-04-20T04:12:37;98975.84;;;8.17;100.00
42289;BME280;30230;47.520;19.016;2023-04-20T04:14:38;98978.94;;;8.21;100.00
42289;BME280;30230;47.520;19.016;2023-04-20T04:16:38;98975.44;;;8.20;100.00
42289;BME280;30230;47.520;19.016;2023-04-20T04:18:42;98978.81;;;8.29;100.00
42289;BME280;30230;47.520;19.016;2023-04-20T04:20:43;98971.78;;;8.28;100.00
42289;BME280;30230;47.520;19.016;2023-04-20T04:22:43;98980.47;;;8.30;100.00
42289;BME280;30230;47.520;19.016;2023-04-20T04:24:44;98986.94;;;8.35;100.00
42289;BME280;30230;47.520;19.016;2023-04-20T04:26:44;98979.34;;;8.39;100.00
42289;BME280;30230;47.520;19.016;2023-04-20T04:28:45;98981.00;;;8.40;100.00
42289;BME280;30230;47.520;19.016;2023-04-20T04:30:45;98987.00;;;8.42;100.00
42289;BME280;30230;47.520;19.016;2023-04-20T04:32:46;98982.28;;;8.44;100.00
42289;BME280;30230;47.520;19.016;2023-04-20T04:34:48;98983.72;;;8.47;100.00
42289;BME280;30230;47.520;19.016;2023-04-20T04:36:49;98976.47;;;8.47;100.00
42289;BME280;30230;47.520;19.016;2023-04-20T04:38:50;98974.44;;;8.49;100.00
42289;BME280;30230;47.520;19.016;2023-04-20T04:40:51;98974.44;;;8.49;100.00
42289;BME280;30230;47.520;19.016;2023-04-20T04:42:53;98981.47;;;8.50;100.00
42289;BME280;30230;47.520;19.016;2023-04-20T04:44:54;98974.03;;;8.52;100.00
42289;BME280;30230;47.520;19.016;2023-04-20T04:46:55;98984.41;;;8.55;100.00
42289;BME280;30230;47.520;19.016;2023-04-20T04:48:56;98987.34;;;8.60;100.00
42289;BME280;30230;47.520;19.016;2023-04-20T04:51:00;98979.88;;;8.63;100.00
42289;BME280;30230;47.520;19.016;2023-04-20T04:53:00;98985.34;;;8.69;100.00
42289;BME280;30230;47.520;19.016;2023-04-20T04:55:01;98977.84;;;8.65;100.00
42289;BME280;30230;47.520;19.016;2023-04-20T04:57:02;98980.13;;;8.68;100.00
42289;BME280;30230;47.520;19.016;2023-04-20T04:59:02;98988.44;;;8.73;100.00
42289;BME280;30230;47.520;19.016;2023-04-20T05:01:03;98992.16;;;8.72;100.00
42289;BME280;30230;47.520;19.016;2023-04-20T05:03:03;98989.72;;;8.77;100.00
42289;BME280;30230;47.520;19.016;2023-04-20T05:05:04;98989.50;;;8.78;100.00
42289;BME280;30230;47.520;19.016;2023-04-20T05:07:05;98995.31;;;8.82;100.00
42289;BME280;30230;47.520;19.016;2023-04-20T05:09:05;98981.47;;;8.85;100.00
42289;BME280;30230;47.520;19.016;2023-04-20T05:11:05;98990.41;;;8.92;100.00
42289;BME280;30230;47.520;19.016;2023-04-20T05:13:06;98994.16;;;8.98;100.00
42289;BME280;30230;47.520;19.016;2023-04-20T05:15:07;98989.66;;;9.05;100.00
42289;BME280;30230;47.520;19.016;2023-04-20T05:17:07;98996.09;;;9.10;100.00
42289;BME280;30230;47.520;19.016;2023-04-20T05:19:08;98995.69;;;9.13;100.00
42289;BME280;30230;47.520;19.016;2023-04-20T05:21:08;98994.47;;;9.23;99.86
42289;BME280;30230;47.520;19.016;2023-04-20T05:23:08;98996.97;;;9.24;99.20
42289;BME280;30230;47.520;19.016;2023-04-20T05:25:09;98997.41;;;9.28;98.97
42289;BME280;30230;47.520;19.016;2023-04-20T05:27:10;98997.66;;;9.39;98.18
42289;BME280;30230;47.520;19.016;2023-04-20T05:29:11;99001.63;;;9.50;96.70
42289;BME280;30230;47.520;19.016;2023-04-20T05:31:12;99005.56;;;9.54;95.86
42289;BME280;30230;47.520;19.016;2023-04-20T05:33:12;98996.44;;;9.55;94.94
42289;BME280;30230;47.520;19.016;2023-04-20T05:35:13;99001.22;;;9.60;95.31
42289;BME280;30230;47.520;19.016;2023-04-20T05:37:14;98985.03;;;9.60;93.77
42289;BME280;30230;47.520;19.016;2023-04-20T05:39:15;99000.22;;;9.68;92.55
42289;BME280;30230;47.520;19.016;2023-04-20T05:41:15;99004.00;;;9.93;89.05
42289;BME280;30230;47.520;19.016;2023-04-20T05:43:16;99008.97;;;9.89;88.73
42289;BME280;30230;47.520;19.016;2023-04-20T05:45:18;98999.22;;;9.88;89.08
42289;BME280;30230;47.520;19.016;2023-04-20T05:47:20;99005.88;;;9.93;89.21
42289;BME280;30230;47.520;19.016;2023-04-20T05:49:20;99022.28;;;10.04;89.13
42289;BME280;30230;47.520;19.016;2023-04-20T05:51:20;99011.47;;;9.98;87.72
42289;BME280;30230;47.520;19.016;2023-04-20T05:53:21;99011.47;;;10.11;86.98
42289;BME280;30230;47.520;19.016;2023-04-20T05:55:22;99013.41;;;10.24;86.31
42289;BME280;30230;47.520;19.016;2023-04-20T05:57:22;99004.88;;;10.27;84.99
42289;BME280;30230;47.520;19.016;2023-04-20T05:59:24;99022.53;;;10.36;85.46
42289;BME280;30230;47.520;19.016;2023-04-20T06:01:25;99019.63;;;10.31;86.94
42289;BME280;30230;47.520;19.016;2023-04-20T06:03:26;99026.88;;;10.43;85.64
42289;BME280;30230;47.520;19.016;2023-04-20T06:05:26;99029.16;;;10.40;84.61
42289;BME280;30230;47.520;19.016;2023-04-20T06:07:26;99029.78;;;10.42;83.73
42289;BME280;30230;47.520;19.016;2023-04-20T06:09:27;99030.41;;;10.44;84.15
42289;BME280;30230;47.520;19.016;2023-04-20T06:11:27;99019.81;;;10.42;83.73
42289;BME280;30230;47.520;19.016;2023-04-20T06:13:28;99031.22;;;10.64;83.08
42289;BME280;30230;47.520;19.016;2023-04-20T06:15:28;99027.44;;;10.79;83.19
42289;BME280;30230;47.520;19.016;2023-04-20T06:17:28;99033.06;;;10.77;79.42
42289;BME280;30230;47.520;19.016;2023-04-20T06:19:29;99034.31;;;10.81;79.95
42289;BME280;30230;47.520;19.016;2023-04-20T06:21:29;99026.63;;;10.78;80.29
42289;BME280;30230;47.520;19.016;2023-04-20T06:23:30;99032.72;;;11.25;93.55
42289;BME280;30230;47.520;19.016;2023-04-20T06:25:31;99028.56;;;11.29;79.50
42289;BME280;30230;47.520;19.016;2023-04-20T06:27:31;99036.09;;;11.14;77.47
42289;BME280;30230;47.520;19.016;2023-04-20T06:29:32;99038.59;;;11.22;78.14
42289;BME280;30230;47.520;19.016;2023-04-20T06:31:32;99025.25;;;11.20;78.19
42289;BME280;30230;47.520;19.016;2023-04-20T06:33:32;99036.91;;;11.28;77.96
42289;BME280;30230;47.520;19.016;2023-04-20T06:35:33;99033.34;;;11.34;77.65
42289;BME280;30230;47.520;19.016;2023-04-20T06:37:34;99037.78;;;11.60;84.67
42289;BME280;30230;47.520;19.016;2023-04-20T06:39:35;99035.13;;;11.91;88.36
42289;BME280;30230;47.520;19.016;2023-04-20T06:41:39;99030.38;;;12.18;83.13
42289;BME280;30230;47.520;19.016;2023-04-20T06:43:39;99044.41;;;12.34;78.87
42289;BME280;30230;47.520;19.016;2023-04-20T06:45:41;99037.94;;;12.35;75.37
42289;BME280;30230;47.520;19.016;2023-04-20T06:47:41;99037.28;;;12.39;73.46
42289;BME280;30230;47.520;19.016;2023-04-20T06:49:42;99038.63;;;12.30;73.54
42289;BME280;30230;47.520;19.016;2023-04-20T06:51:42;99039.47;;;12.31;73.52
42289;BME280;30230;47.520;19.016;2023-04-20T06:53:43;99039.88;;;12.28;73.43
42289;BME280;30230;47.520;19.016;2023-04-20T06:55:43;99032.03;;;12.19;74.40
42289;BME280;30230;47.520;19.016;2023-04-20T06:57:44;99042.03;;;12.44;71.20
42289;BME280;30230;47.520;19.016;2023-04-20T06:59:44;99031.53;;;12.29;70.49
42289;BME280;30230;47.520;19.016;2023-04-20T07:01:45;99036.53;;;12.32;71.29
42289;BME280;30230;47.520;19.016;2023-04-20T07:03:45;99038.94;;;12.65;75.62
42289;BME280;30230;47.520;19.016;2023-04-20T07:05:46;99047.06;;;12.65;70.79
42289;BME280;30230;47.520;19.016;2023-04-20T07:07:46;99049.78;;;12.65;70.80
42289;BME280;30230;47.520;19.016;2023-04-20T07:09:46;99032.03;;;12.69;70.62
42289;BME280;30230;47.520;19.016;2023-04-20T07:11:47;99035.59;;;12.88;69.95
42289;BME280;30230;47.520;19.016;2023-04-20T07:13:48;99037.03;;;12.91;69.42
42289;BME280;30230;47.520;19.016;2023-04-20T07:15:48;99040.13;;;12.94;68.06
42289;BME280;30230;47.520;19.016;2023-04-20T07:17:48;99039.84;;;13.02;67.09
42289;BME280;30230;47.520;19.016;2023-04-20T07:19:49;99040.50;;;13.16;64.92
42289;BME280;30230;47.520;19.016;2023-04-20T07:21:50;99041.81;;;13.32;65.64
42289;BME280;30230;47.520;19.016;2023-04-20T07:23:50;99045.78;;;13.48;63.70
42289;BME280;30230;47.520;19.016;2023-04-20T07:25:51;99048.59;;;13.60;62.87
42289;BME280;30230;47.520;19.016;2023-04-20T07:27:51;99044.41;;;13.75;62.07
42289;BME280;30230;47.520;19.016;2023-04-20T07:29:51;99044.91;;;13.84;62.34
42289;BME280;30230;47.520;19.016;2023-04-20T07:31:52;99049.63;;;13.89;59.56
42289;BME280;30230;47.520;19.016;2023-04-20T07:33:52;99046.25;;;14.05;59.75
42289;BME280;30230;47.520;19.016;2023-04-20T07:35:53;99045.94;;;14.13;58.17
42289;BME280;30230;47.520;19.016;2023-04-20T07:37:53;99044.22;;;14.30;59.88
42289;BME280;30230;47.520;19.016;2023-04-20T07:39:53;99050.03;;;14.46;61.55
42289;BME280;30230;47.520;19.016;2023-04-20T07:41:54;99040.50;;;14.67;58.67
42289;BME280;30230;47.520;19.016;2023-04-20T07:43:54;99046.56;;;14.69;59.31
42289;BME280;30230;47.520;19.016;2023-04-20T07:45:54;99047.25;;;14.76;58.57
42289;BME280;30230;47.520;19.016;2023-04-20T07:47:55;99042.88;;;15.10;59.22
42289;BME280;30230;47.520;19.016;2023-04-20T07:49:56;99049.22;;;15.27;57.56
42289;BME280;30230;47.520;19.016;2023-04-20T07:51:56;99039.03;;;15.34;58.37
42289;BME280;30230;47.520;19.016;2023-04-20T07:53:57;99049.59;;;15.31;59.07
42289;BME280;30230;47.520;19.016;2023-04-20T07:55:57;99051.22;;;15.32;56.82
42289;BME280;30230;47.520;19.016;2023-04-20T07:57:58;99058.19;;;15.51;56.08
42289;BME280;30230;47.520;19.016;2023-04-20T07:59:59;99044.78;;;15.50;55.40
42289;BME280;30230;47.520;19.016;2023-04-20T08:02:01;99052.94;;;15.73;56.37
42289;BME280;30230;47.520;19.016;2023-04-20T08:04:02;99052.31;;;15.83;56.85
42289;BME280;30230;47.520;19.016;2023-04-20T08:06:02;99047.28;;;15.92;56.42
42289;BME280;30230;47.520;19.016;2023-04-20T08:08:03;99051.88;;;16.03;57.86
42289;BME280;30230;47.520;19.016;2023-04-20T08:10:04;99048.00;;;16.15;56.06
42289;BME280;30230;47.520;19.016;2023-04-20T08:12:05;99041.00;;;16.20;54.73
42289;BME280;30230;47.520;19.016;2023-04-20T08:14:06;99053.06;;;16.24;54.42
42289;BME280;30230;47.520;19.016;2023-04-20T08:16:06;99043.31;;;16.45;52.41
42289;BME280;30230;47.520;19.016;2023-04-20T08:18:07;99043.81;;;16.41;53.35
42289;BME280;30230;47.520;19.016;2023-04-20T08:20:07;99039.84;;;16.66;50.78
42289;BME280;30230;47.520;19.016;2023-04-20T08:22:08;99038.06;;;16.72;52.44
42289;BME280;30230;47.520;19.016;2023-04-20T08:24:11;99038.50;;;16.68;52.07
42289;BME280;30230;47.520;19.016;2023-04-20T08:26:15;99040.34;;;16.80;52.04
42289;BME280;30230;47.520;19.016;2023-04-20T08:28:16;99030.38;;;16.85;52.11
42289;BME280;30230;47.520;19.016;2023-04-20T08:30:16;99035.19;;;17.17;51.39
42289;BME280;30230;47.520;19.016;2023-04-20T08:32:17;99036.03;;;16.67;50.72
42289;BME280;30230;47.520;19.016;2023-04-20T08:34:21;99038.31;;;17.09;52.24
42289;BME280;30230;47.520;19.016;2023-04-20T08:36:22;99045.50;;;17.15;51.93
42289;BME280;30230;47.520;19.016;2023-04-20T08:38:22;99032.66;;;17.32;49.92
42289;BME280;30230;47.520;19.016;2023-04-20T08:40:23;99036.00;;;17.39;50.79
42289;BME280;30230;47.520;19.016;2023-04-20T08:42:24;99039.00;;;17.38;48.09
42289;BME280;30230;47.520;19.016;2023-04-20T08:44:24;99033.53;;;17.60;49.63
42289;BME280;30230;47.520;19.016;2023-04-20T08:46:25;99033.81;;;17.80;51.23
42289;BME280;30230;47.520;19.016;2023-04-20T08:48:33;99031.84;;;18.03;51.39
42289;BME280;30230;47.520;19.016;2023-04-20T08:50:35;99025.81;;;18.01;48.87
42289;BME280;30230;47.520;19.016;2023-04-20T08:52:36;99033.84;;;18.12;45.40
42289;BME280;30230;47.520;19.016;2023-04-20T08:54:38;99023.63;;;18.30;47.31
42289;BME280;30230;47.520;19.016;2023-04-20T08:56:41;99033.13;;;18.22;45.74
42289;BME280;30230;47.520;19.016;2023-04-20T08:58:41;99036.22;;;18.31;46.93
42289;BME280;30230;47.520;19.016;2023-04-20T09:00:46;99040.88;;;18.30;46.75
42289;BME280;30230;47.520;19.016;2023-04-20T09:02:52;99036.41;;;18.51;46.00
42289;BME280;30230;47.520;19.016;2023-04-20T09:05:05;99034.53;;;18.57;47.15
42289;BME280;30230;47.520;19.016;2023-04-20T09:07:06;99034.03;;;18.65;46.91
42289;BME280;30230;47.520;19.016;2023-04-20T09:09:16;99033.88;;;18.71;43.05
42289;BME280;30230;47.520;19.016;2023-04-20T09:11:24;99034.06;;;19.07;45.51
42289;BME280;30230;47.520;19.016;2023-04-20T09:13:25;99036.00;;;19.07;46.00
42289;BME280;30230;47.520;19.016;2023-04-20T09:15:26;99033.59;;;19.15;46.29
42289;BME280;30230;47.520;19.016;2023-04-20T09:17:35;99028.47;;;19.29;45.78
42289;BME280;30230;47.520;19.016;2023-04-20T09:19:36;99041.81;;;19.20;45.39
42289;BME280;30230;47.520;19.016;2023-04-20T09:21:36;99032.34;;;19.38;44.10
42289;BME280;30230;47.520;19.016;2023-04-20T09:23:37;99033.56;;;19.68;42.52
42289;BME280;30230;47.520;19.016;2023-04-20T09:25:37;99035.06;;;19.43;40.69
42289;BME280;30230;47.520;19.016;2023-04-20T09:27:39;99033.75;;;19.51;41.32
42289;BME280;30230;47.520;19.016;2023-04-20T09:29:40;99029.41;;;19.55;42.02
42289;BME280;30230;47.520;19.016;2023-04-20T09:31:40;99037.41;;;19.67;43.21
42289;BME280;30230;47.520;19.016;2023-04-20T09:33:41;99044.84;;;19.71;42.32
42289;BME280;30230;47.520;19.016;2023-04-20T09:35:43;99028.69;;;19.80;43.07
42289;BME280;30230;47.520;19.016;2023-04-20T09:37:47;99034.22;;;19.90;40.41
42289;BME280;30230;47.520;19.016;2023-04-20T09:39:48;99036.38;;;19.83;40.00
42289;BME280;30230;47.520;19.016;2023-04-20T09:41:50;99026.75;;;19.70;37.40
42289;BME280;30230;47.520;19.016;2023-04-20T09:43:50;99033.91;;;19.87;39.96
42289;BME280;30230;47.520;19.016;2023-04-20T09:45:51;99030.66;;;20.10;42.58
42289;BME280;30230;47.520;19.016;2023-04-20T09:47:52;99036.66;;;19.92;41.11
42289;BME280;30230;47.520;19.016;2023-04-20T09:49:54;99013.66;;;20.08;41.39
42289;BME280;30230;47.520;19.016;2023-04-20T09:51:55;99027.69;;;20.17;42.08
42289;BME280;30230;47.520;19.016;2023-04-20T09:53:59;99032.09;;;20.43;40.88
42289;BME280;30230;47.520;19.016;2023-04-20T09:56:00;99017.28;;;20.44;39.61
42289;BME280;30230;47.520;19.016;2023-04-20T09:58:03;99012.91;;;20.53;41.21
42289;BME280;30230;47.520;19.016;2023-04-20T10:00:05;99020.03;;;20.60;39.62
42289;BME280;30230;47.520;19.016;2023-04-20T10:02:10;99011.78;;;20.39;41.21
42289;BME280;30230;47.520;19.016;2023-04-20T10:04:11;99018.09;;;20.45;38.46
42289;BME280;30230;47.520;19.016;2023-04-20T10:06:20;99018.13;;;20.60;38.98
42289;BME280;30230;47.520;19.016;2023-04-20T10:08:20;99014.25;;;20.41;38.81
42289;BME280;30230;47.520;19.016;2023-04-20T10:10:21;99009.31;;;20.43;39.27
42289;BME280;30230;47.520;19.016;2023-04-20T10:12:23;99018.94;;;20.66;40.28
42289;BME280;30230;47.520;19.016;2023-04-20T10:14:24;99012.34;;;20.72;38.36
42289;BME280;30230;47.520;19.016;2023-04-20T10:16:25;99016.19;;;20.76;39.10
42289;BME280;30230;47.520;19.016;2023-04-20T10:18:25;99014.81;;;20.73;38.10
42289;BME280;30230;47.520;19.016;2023-04-20T10:20:27;99009.56;;;20.82;38.99
42289;BME280;30230;47.520;19.016;2023-04-20T10:22:28;99012.28;;;21.02;39.13
42289;BME280;30230;47.520;19.016;2023-04-20T10:24:32;99006.84;;;20.72;36.04
42289;BME280;30230;47.520;19.016;2023-04-20T10:26:41;99005.41;;;21.10;39.20
42289;BME280;30230;47.520;19.016;2023-04-20T10:28:42;99010.88;;;21.36;38.49
42289;BME280;30230;47.520;19.016;2023-04-20T10:30:50;98999.84;;;21.46;39.67
42289;BME280;30230;47.520;19.016;2023-04-20T10:33:05;99009.06;;;21.65;37.77